createdAt,value
2018-06-19T00:06:43.955Z,22.10
2018-06-19T00:09:12.494Z,22.10
2018-06-19T00:11:40.993Z,22.10
2018-06-19T00:14:09.552Z,22.10
2018-06-19T00:16:38.350Z,22.00
2018-06-19T00:19:07.697Z,22.00
2018-06-19T00:21:40.080Z,22.00
2018-06-19T00:24:08.659Z,21.90
2018-06-19T00:26:37.171Z,21.90
2018-06-19T00:29:05.703Z,21.90
2018-06-19T00:31:34.243Z,21.90
2018-06-19T00:34:02.789Z,21.80
2018-06-19T00:36:31.426Z,21.80
2018-06-19T00:38:59.954Z,21.80
2018-06-19T00:41:28.512Z,21.70
2018-06-19T00:43:57.032Z,21.70
2018-06-19T00:46:27.748Z,21.70
2018-06-19T00:48:56.251Z,21.60
2018-06-19T00:51:25.614Z,21.60
2018-06-19T00:56:33.865Z,21.60
2018-06-19T00:59:02.391Z,21.60
2018-06-19T01:01:30.929Z,21.50
2018-06-19T01:03:59.462Z,21.50
2018-06-19T01:06:28.057Z,21.50
2018-06-19T01:08:56.571Z,21.40
2018-06-19T01:11:25.102Z,21.40
2018-06-19T01:13:53.973Z,21.40
2018-06-19T01:16:22.523Z,21.40
2018-06-19T01:18:51.114Z,21.30
2018-06-19T01:21:19.658Z,21.30
2018-06-19T01:23:48.172Z,21.30
2018-06-19T01:28:45.062Z,21.30
2018-06-19T01:31:13.475Z,21.20
2018-06-19T01:33:41.991Z,21.20
2018-06-19T01:36:10.529Z,21.20
2018-06-19T01:38:39.035Z,21.20
2018-06-19T01:41:07.599Z,21.20
2018-06-19T01:43:36.106Z,21.10
2018-06-19T01:46:04.965Z,21.10
2018-06-19T01:48:33.518Z,21.10
2018-06-19T01:51:02.069Z,21.00
2018-06-19T01:53:30.584Z,21.00
2018-06-19T01:55:59.103Z,21.00
2018-06-19T01:58:27.817Z,20.90
2018-06-19T02:00:56.347Z,21.00
2018-06-19T02:03:24.932Z,20.90
2018-06-19T02:05:53.438Z,20.90
2018-06-19T02:08:21.941Z,20.90
2018-06-19T02:10:50.501Z,20.80
2018-06-19T02:13:19.001Z,20.80
2018-06-19T02:15:47.540Z,20.80
2018-06-19T02:18:16.026Z,20.80
2018-06-19T02:20:44.578Z,20.80
2018-06-19T02:23:13.094Z,20.70
2018-06-19T02:25:41.590Z,20.70
2018-06-19T02:28:10.107Z,20.70
2018-06-19T02:30:38.605Z,20.60
2018-06-19T02:33:07.147Z,20.60
2018-06-19T02:35:35.753Z,20.60
2018-06-19T02:38:04.394Z,20.60
2018-06-19T02:40:33.070Z,20.60
2018-06-19T02:43:01.599Z,20.60
2018-06-19T02:45:30.103Z,20.50
2018-06-19T02:47:58.629Z,20.50
2018-06-19T02:50:27.169Z,20.50
2018-06-19T02:52:55.862Z,20.50
2018-06-19T02:55:24.363Z,20.50
2018-06-19T02:57:52.890Z,20.50
2018-06-19T03:00:21.573Z,20.40
2018-06-19T03:02:50.050Z,20.40
2018-06-19T03:05:18.678Z,20.40
2018-06-19T03:07:47.203Z,20.40
2018-06-19T03:10:15.704Z,20.30
2018-06-19T03:12:44.219Z,20.40
2018-06-19T03:15:12.908Z,20.30
2018-06-19T03:17:41.708Z,20.30
2018-06-19T03:20:10.184Z,20.30
2018-06-19T03:22:38.724Z,20.30
2018-06-19T03:25:07.369Z,20.30
2018-06-19T03:27:35.871Z,20.30
2018-06-19T03:30:04.618Z,20.20
2018-06-19T03:32:33.083Z,20.20
2018-06-19T03:35:01.585Z,20.20
2018-06-19T03:37:30.106Z,20.20
2018-06-19T03:39:58.600Z,20.20
2018-06-19T03:42:27.121Z,20.20
2018-06-19T03:44:55.624Z,20.20
2018-06-19T03:47:24.139Z,20.20
2018-06-19T03:49:52.982Z,20.10
2018-06-19T03:52:21.483Z,20.10
2018-06-19T03:54:49.977Z,20.10
2018-06-19T03:57:18.511Z,20.10
2018-06-19T03:59:47.035Z,20.10
2018-06-19T04:02:15.572Z,20.10
2018-06-19T04:04:44.089Z,20.00
2018-06-19T04:07:12.629Z,20.00
2018-06-19T04:09:41.152Z,20.00
2018-06-19T04:12:09.690Z,20.00
2018-06-19T04:14:38.226Z,20.00
2018-06-19T04:17:06.803Z,20.00
2018-06-19T04:19:35.326Z,20.00
2018-06-19T04:22:03.867Z,19.90
2018-06-19T04:24:32.401Z,19.90
2018-06-19T04:27:01.023Z,19.90
2018-06-19T04:29:29.581Z,19.90
2018-06-19T04:31:58.102Z,19.90
2018-06-19T04:34:26.728Z,19.90
2018-06-19T04:36:55.913Z,19.90
2018-06-19T04:39:24.445Z,19.90
2018-06-19T04:41:52.984Z,19.80
2018-06-19T04:44:21.529Z,19.80
2018-06-19T04:46:50.046Z,19.80
2018-06-19T04:49:18.603Z,19.80
2018-06-19T04:54:16.012Z,19.80
2018-06-19T04:56:44.573Z,19.80
2018-06-19T04:59:13.130Z,19.80
2018-06-19T05:01:41.629Z,19.80
2018-06-19T05:04:10.185Z,19.70
2018-06-19T05:06:38.721Z,19.70
2018-06-19T05:09:10.695Z,19.80
2018-06-19T05:11:39.262Z,19.70
2018-06-19T05:14:08.381Z,19.70
2018-06-19T05:16:36.914Z,19.70
2018-06-19T05:19:05.555Z,19.70
2018-06-19T05:21:34.128Z,19.70
2018-06-19T05:24:02.682Z,19.70
2018-06-19T05:26:31.217Z,19.70
2018-06-19T05:29:00.602Z,19.70
2018-06-19T05:31:29.470Z,19.70
2018-06-19T05:33:58.307Z,19.70
2018-06-19T05:36:26.846Z,19.70
2018-06-19T05:38:55.419Z,19.70
2018-06-19T05:41:24.070Z,19.70
2018-06-19T05:43:52.633Z,19.70
2018-06-19T05:46:21.219Z,19.70
2018-06-19T05:48:49.752Z,19.60
2018-06-19T05:51:18.281Z,19.70
2018-06-19T05:53:46.856Z,19.60
2018-06-19T05:56:15.421Z,19.70
2018-06-19T05:58:43.953Z,19.60
2018-06-19T06:01:12.498Z,19.70
2018-06-19T06:03:41.022Z,19.70
2018-06-19T06:06:09.767Z,19.70
2018-06-19T06:08:38.290Z,19.60
2018-06-19T06:11:07.099Z,19.70
2018-06-19T06:13:35.649Z,19.60
2018-06-19T06:16:04.202Z,19.70
2018-06-19T06:18:32.730Z,19.60
2018-06-19T06:21:01.278Z,19.60
2018-06-19T06:23:30.243Z,19.60
2018-06-19T06:25:58.806Z,19.60
2018-06-19T06:28:27.337Z,19.70
2018-06-19T06:30:55.932Z,19.70
2018-06-19T06:33:24.701Z,19.70
2018-06-19T06:35:53.453Z,19.70
2018-06-19T06:38:22.001Z,19.70
2018-06-19T06:40:50.698Z,19.70
2018-06-19T06:43:19.225Z,19.60
2018-06-19T06:45:48.321Z,19.70
2018-06-19T06:48:16.866Z,19.60
2018-06-19T06:50:45.428Z,19.60
2018-06-19T06:53:14.087Z,19.60
2018-06-19T06:55:42.638Z,19.70
2018-06-19T06:58:11.223Z,19.70
2018-06-19T07:00:39.776Z,19.70
2018-06-19T07:03:08.337Z,19.70
2018-06-19T07:05:36.881Z,19.80
2018-06-19T07:08:05.879Z,19.80
2018-06-19T07:10:34.418Z,19.80
2018-06-19T07:13:02.996Z,19.80
2018-06-19T07:15:31.543Z,19.90
2018-06-19T07:18:00.144Z,19.90
2018-06-19T07:20:28.830Z,19.90
2018-06-19T07:22:57.753Z,19.90
2018-06-19T07:25:26.273Z,20.00
2018-06-19T07:27:54.881Z,20.00
2018-06-19T07:30:23.407Z,20.00
2018-06-19T07:32:51.914Z,20.00
2018-06-19T07:35:20.451Z,20.00
2018-06-19T07:37:49.047Z,20.00
2018-06-19T07:40:17.585Z,20.10
2018-06-19T07:42:46.097Z,20.00
2018-06-19T07:45:14.663Z,20.10
2018-06-19T07:47:43.171Z,20.10
2018-06-19T07:50:11.666Z,20.10
2018-06-19T07:52:40.191Z,20.10
2018-06-19T07:57:36.942Z,20.20
2018-06-19T08:00:05.565Z,20.20
2018-06-19T08:02:34.133Z,20.20
2018-06-19T08:05:02.806Z,20.20
2018-06-19T08:07:31.355Z,20.20
2018-06-19T08:09:59.894Z,20.20
2018-06-19T08:12:28.432Z,20.20
2018-06-19T08:14:57.071Z,20.20
2018-06-19T08:17:25.670Z,20.30
2018-06-19T08:19:54.187Z,20.30
2018-06-19T08:22:22.821Z,20.30
2018-06-19T08:24:51.357Z,20.30
2018-06-19T08:27:20.230Z,20.30
2018-06-19T08:29:49.002Z,20.30
2018-06-19T08:32:17.573Z,20.30
2018-06-19T08:34:46.114Z,20.40
2018-06-19T08:37:14.683Z,20.40
2018-06-19T08:39:43.198Z,20.40
2018-06-19T08:42:11.749Z,20.40
2018-06-19T08:44:40.273Z,20.40
2018-06-19T08:47:08.811Z,20.40
2018-06-19T08:49:37.505Z,20.40
2018-06-19T08:52:06.103Z,20.50
2018-06-19T08:54:34.652Z,20.50
2018-06-19T08:57:03.311Z,20.50
2018-06-19T08:59:31.831Z,20.50
2018-06-19T09:02:00.386Z,20.50
2018-06-19T09:04:29.055Z,20.60
2018-06-19T09:06:57.580Z,20.60
2018-06-19T09:09:26.142Z,20.60
2018-06-19T09:11:54.688Z,20.70
2018-06-19T09:14:23.302Z,20.70
2018-06-19T09:16:52.097Z,20.80
2018-06-19T09:19:20.606Z,20.80
2018-06-19T09:21:49.161Z,20.90
2018-06-19T09:24:17.746Z,20.90
2018-06-19T09:26:46.412Z,20.90
2018-06-19T09:29:14.978Z,20.90
2018-06-19T09:31:43.662Z,20.90
2018-06-19T09:34:12.509Z,21.00
2018-06-19T09:36:41.025Z,21.10
2018-06-19T09:39:11.644Z,21.20
2018-06-19T09:41:40.587Z,21.20
2018-06-19T09:44:09.143Z,21.20
2018-06-19T09:49:07.150Z,21.30
2018-06-19T09:51:36.352Z,21.20
2018-06-19T09:54:05.127Z,21.30
2018-06-19T09:56:33.862Z,21.40
2018-06-19T09:59:03.087Z,21.50
2018-06-19T10:01:31.739Z,21.60
2018-06-19T10:04:00.422Z,21.60
2018-06-19T10:06:29.452Z,21.60
2018-06-19T10:08:57.975Z,21.60
2018-06-19T10:11:26.507Z,21.60
2018-06-19T10:13:55.059Z,21.60
2018-06-19T10:16:23.600Z,21.50
2018-06-19T10:21:20.377Z,21.60
2018-06-19T10:23:48.971Z,21.60
2018-06-19T10:26:17.479Z,21.70
2018-06-19T10:28:46.044Z,21.70
2018-06-19T10:31:14.583Z,21.70
2018-06-19T10:33:43.233Z,21.80
2018-06-19T10:36:11.797Z,21.80
2018-06-19T10:38:40.482Z,21.80
2018-06-19T10:41:09.031Z,21.80
2018-06-19T10:43:37.594Z,21.80
2018-06-19T10:46:06.127Z,21.90
2018-06-19T10:48:34.673Z,21.90
2018-06-19T10:51:03.219Z,22.00
2018-06-19T10:53:31.810Z,22.10
2018-06-19T10:56:01.289Z,22.20
2018-06-19T10:58:29.834Z,22.10
2018-06-19T11:00:58.363Z,22.10
2018-06-19T11:03:27.018Z,22.00
2018-06-19T11:05:56.026Z,21.90
2018-06-19T11:08:24.654Z,21.90
2018-06-19T11:10:53.128Z,21.80
2018-06-19T11:13:21.653Z,21.80
2018-06-19T11:15:50.220Z,21.80
2018-06-19T11:18:18.735Z,21.90
2018-06-19T11:20:47.337Z,21.90
2018-06-19T11:23:15.922Z,22.10
2018-06-19T11:25:44.465Z,22.30
2018-06-19T11:28:12.977Z,22.20
2018-06-19T11:30:41.527Z,22.20
2018-06-19T11:35:38.417Z,22.00
2018-06-19T11:38:07.023Z,22.00
2018-06-19T11:40:35.617Z,22.00
2018-06-19T11:43:04.137Z,22.00
2018-06-19T11:45:32.701Z,22.00
2018-06-19T11:48:01.218Z,22.10
2018-06-19T11:50:29.755Z,22.30
2018-06-19T11:52:58.269Z,22.50
2018-06-19T11:55:26.823Z,22.50
2018-06-19T11:57:55.494Z,22.50
2018-06-19T12:00:24.019Z,22.40
2018-06-19T12:02:52.565Z,22.40
2018-06-19T12:05:21.141Z,22.30
2018-06-19T12:07:49.869Z,22.40
2018-06-19T12:10:18.404Z,22.40
2018-06-19T12:12:46.926Z,22.40
2018-06-19T12:15:15.477Z,22.50
2018-06-19T12:17:43.996Z,22.50
2018-06-19T12:20:12.539Z,23.80
2018-06-19T12:22:41.084Z,25.40
2018-06-19T12:27:37.816Z,26.90
2018-06-19T12:30:06.677Z,27.40
2018-06-19T12:32:35.279Z,27.80
2018-06-19T12:35:03.882Z,27.90
2018-06-19T12:37:32.393Z,28.00
2018-06-19T12:40:00.936Z,28.20
2018-06-19T12:42:29.446Z,28.20
2018-06-19T12:44:57.964Z,28.30
2018-06-19T12:47:26.526Z,28.30
2018-06-19T12:50:41.197Z,28.20
2018-06-19T12:53:21.483Z,28.20
2018-06-19T12:56:02.167Z,28.20
2018-06-19T12:58:30.691Z,28.10
2018-06-19T13:00:59.590Z,27.90
2018-06-19T13:03:39.262Z,27.80
2018-06-19T13:06:18.921Z,27.70
2018-06-19T13:08:47.453Z,27.70
2018-06-19T13:11:16.030Z,27.80
2018-06-19T13:13:55.836Z,27.80
2018-06-19T13:16:35.654Z,27.80
2018-06-19T13:19:15.321Z,27.80
2018-06-19T13:21:43.887Z,27.80
2018-06-19T13:24:12.429Z,27.90
2018-06-19T13:26:40.968Z,27.90
2018-06-19T13:29:48.808Z,27.90
2018-06-19T13:32:17.373Z,27.90
2018-06-19T13:34:45.975Z,27.90
2018-06-19T13:37:15.579Z,27.90
2018-06-19T13:39:44.786Z,27.80
2018-06-19T13:43:26.515Z,27.80
2018-06-19T13:45:55.058Z,27.90
2018-06-19T13:48:23.917Z,28.00
2018-06-19T13:50:52.442Z,28.00
2018-06-19T13:53:21.066Z,28.10
2018-06-19T13:56:09.953Z,28.00
2018-06-19T13:58:38.984Z,28.10
2018-06-19T14:01:08.285Z,28.00
2018-06-19T14:03:37.175Z,28.00
2018-06-19T14:06:05.826Z,27.90
2018-06-19T14:08:46.586Z,27.80
2018-06-19T14:11:26.271Z,27.90
2018-06-19T14:13:54.932Z,27.90
2018-06-19T14:16:23.452Z,27.80
2018-06-19T14:18:52.074Z,27.80
2018-06-19T14:21:20.707Z,27.80
2018-06-19T14:23:49.277Z,27.80
2018-06-19T14:26:17.923Z,27.80
2018-06-19T14:28:46.491Z,27.80
2018-06-19T14:31:15.030Z,27.70
2018-06-19T14:33:44.142Z,27.80
2018-06-19T14:36:12.999Z,27.90
2018-06-19T14:38:41.846Z,27.90
2018-06-19T14:41:10.891Z,27.90
2018-06-19T14:43:39.435Z,27.90
2018-06-19T14:46:08.004Z,27.80
2018-06-19T14:48:36.713Z,27.80
2018-06-19T14:51:05.258Z,27.80
2018-06-19T14:53:33.781Z,27.70
2018-06-19T14:56:02.301Z,27.70
2018-06-19T14:58:30.803Z,27.60
2018-06-19T15:00:59.540Z,27.60
2018-06-19T15:03:28.043Z,27.60
2018-06-19T15:05:56.578Z,27.60
2018-06-19T15:10:53.357Z,27.60
2018-06-19T15:13:21.869Z,27.60
2018-06-19T15:15:50.415Z,27.60
2018-06-19T15:18:18.920Z,27.50
2018-06-19T15:20:47.525Z,27.50
2018-06-19T15:23:16.052Z,27.50
2018-06-19T15:25:44.595Z,27.50
2018-06-19T15:28:13.111Z,27.50
2018-06-19T15:30:41.628Z,27.40
2018-06-19T15:35:38.375Z,27.40
2018-06-19T15:40:35.081Z,27.30
2018-06-19T15:43:03.601Z,27.30
2018-06-19T15:45:34.218Z,27.30
2018-06-19T15:48:02.791Z,27.30
2018-06-19T15:50:31.333Z,27.30
2018-06-19T15:52:59.854Z,27.30
2018-06-19T15:55:28.409Z,27.30
2018-06-19T15:57:56.903Z,27.30
2018-06-19T16:00:25.434Z,27.30
2018-06-19T16:02:53.925Z,27.30
2018-06-19T16:05:22.465Z,27.30
2018-06-19T16:07:56.354Z,27.20
2018-06-19T16:10:25.064Z,27.20
2018-06-19T16:12:53.568Z,27.20
2018-06-19T16:15:22.069Z,27.20
2018-06-19T16:17:50.586Z,27.20
2018-06-19T16:20:19.090Z,27.20
2018-06-19T16:22:47.612Z,27.10
2018-06-19T16:25:16.135Z,27.10
2018-06-19T16:27:44.708Z,27.10
2018-06-19T16:30:13.186Z,27.00
2018-06-19T16:32:41.822Z,27.00
2018-06-19T16:35:10.579Z,27.00
2018-06-19T16:37:39.115Z,27.00
2018-06-19T16:40:07.755Z,26.90
2018-06-19T16:42:36.964Z,26.90
2018-06-19T16:45:05.649Z,26.90
2018-06-19T16:47:34.275Z,26.90
2018-06-19T16:50:02.923Z,26.90
2018-06-19T16:52:31.452Z,26.90
2018-06-19T16:55:00.061Z,26.90
2018-06-19T16:57:28.612Z,26.80
2018-06-19T16:59:57.113Z,26.80
2018-06-19T17:02:25.639Z,26.80
2018-06-19T17:04:54.140Z,26.80
2018-06-19T17:07:22.675Z,26.70
2018-06-19T17:09:51.170Z,26.70
2018-06-19T17:12:19.730Z,26.70
2018-06-19T17:17:16.463Z,26.70
2018-06-19T17:19:44.965Z,26.70
2018-06-19T17:22:13.709Z,26.60
2018-06-19T17:24:42.339Z,26.60
2018-06-19T17:27:11.101Z,26.60
2018-06-19T17:29:39.789Z,26.60
2018-06-19T17:32:08.321Z,26.60
2018-06-19T17:34:36.907Z,26.50
2018-06-19T17:37:05.478Z,26.50
2018-06-19T17:39:33.965Z,26.50
2018-06-19T17:42:02.506Z,26.50
2018-06-19T17:44:30.994Z,26.50
2018-06-19T17:46:59.575Z,26.40
2018-06-19T17:49:28.211Z,26.40
2018-06-19T17:51:56.761Z,26.40
2018-06-19T17:54:25.276Z,26.30
2018-06-19T17:56:53.942Z,26.40
2018-06-19T17:59:22.454Z,26.30
2018-06-19T18:01:50.993Z,26.30
2018-06-19T18:04:19.527Z,26.30
2018-06-19T18:06:48.133Z,26.30
2018-06-19T18:09:16.729Z,26.30
2018-06-19T18:11:45.250Z,26.20
2018-06-19T18:14:13.772Z,26.20
2018-06-19T18:16:42.327Z,26.10
2018-06-19T18:19:10.854Z,26.10
2018-06-19T18:21:39.413Z,26.10
2018-06-19T18:24:08.207Z,26.10
2018-06-19T18:26:36.738Z,26.10
2018-06-19T18:29:05.309Z,26.10
2018-06-19T18:31:33.826Z,26.00
2018-06-19T18:34:02.406Z,26.00
2018-06-19T18:36:30.950Z,26.00
2018-06-19T18:38:59.517Z,25.90
2018-06-19T18:41:28.027Z,25.90
2018-06-19T18:43:56.589Z,25.90
2018-06-19T18:46:25.119Z,25.90
2018-06-19T18:48:53.666Z,25.90
2018-06-19T18:51:22.666Z,25.80
2018-06-19T18:53:51.427Z,25.80
2018-06-19T18:56:19.955Z,25.70
2018-06-19T18:58:48.495Z,25.70
2018-06-19T19:01:17.039Z,25.70
2018-06-19T19:03:45.617Z,25.70
2018-06-19T19:06:14.533Z,25.70
2018-06-19T19:08:43.117Z,25.70
2018-06-19T19:11:11.803Z,25.60
2018-06-19T19:13:40.648Z,25.60
2018-06-19T19:16:14.618Z,25.50
2018-06-19T19:18:48.593Z,25.50
2018-06-19T19:21:17.097Z,25.50
2018-06-19T19:23:45.648Z,25.50
2018-06-19T19:26:14.189Z,25.50
2018-06-19T19:28:48.068Z,25.40
2018-06-19T19:31:16.619Z,25.40
2018-06-19T19:33:45.176Z,25.40
2018-06-19T19:36:19.052Z,25.30
2018-06-19T19:38:53.081Z,25.30
2018-06-19T19:41:21.742Z,25.30
2018-06-19T19:43:50.930Z,25.30
2018-06-19T19:46:24.742Z,25.30
2018-06-19T19:48:58.735Z,25.20
2018-06-19T19:51:28.439Z,25.20
2018-06-19T19:53:57.068Z,25.10
2018-06-19T19:56:30.963Z,25.10
2018-06-19T19:58:59.507Z,25.10
2018-06-19T20:03:56.355Z,25.00
2018-06-19T20:06:24.899Z,25.00
2018-06-19T20:08:53.480Z,25.00
2018-06-19T20:11:22.012Z,24.90
2018-06-19T20:13:50.577Z,24.90
2018-06-19T20:16:19.216Z,24.90
2018-06-19T20:18:47.857Z,24.80
2018-06-19T20:21:16.386Z,24.80
2018-06-19T20:23:44.987Z,24.80
2018-06-19T20:26:13.511Z,24.80
2018-06-19T20:28:42.024Z,24.70
2018-06-19T20:31:10.586Z,24.70
2018-06-19T20:33:39.221Z,24.70
2018-06-19T20:36:07.768Z,24.60
2018-06-19T20:38:36.314Z,24.60
2018-06-19T20:41:04.866Z,24.60
2018-06-19T20:43:33.374Z,24.50
2018-06-19T20:46:01.895Z,24.50
2018-06-19T20:48:30.409Z,24.50
2018-06-19T20:50:58.963Z,24.50
2018-06-19T20:53:27.638Z,24.40
2018-06-19T20:55:56.172Z,24.40
2018-06-19T20:58:24.710Z,24.40
2018-06-19T21:00:53.254Z,24.40
2018-06-19T21:03:21.780Z,24.30
2018-06-19T21:05:50.329Z,24.30
2018-06-19T21:08:19.141Z,24.30
2018-06-19T21:10:47.686Z,24.20
2018-06-19T21:13:16.282Z,24.20
2018-06-19T21:15:44.823Z,24.20
2018-06-19T21:18:13.417Z,24.20
2018-06-19T21:20:41.998Z,24.10
2018-06-19T21:23:10.711Z,24.10
2018-06-19T21:25:39.248Z,24.10
2018-06-19T21:28:07.811Z,24.10
2018-06-19T21:30:36.379Z,24.00
2018-06-19T21:33:04.937Z,24.00
2018-06-19T21:35:33.463Z,23.90
2018-06-19T21:38:02.328Z,23.90
2018-06-19T21:40:30.865Z,23.90
2018-06-19T21:42:59.517Z,23.80
2018-06-19T21:45:28.040Z,23.80
2018-06-19T21:47:56.578Z,23.80
2018-06-19T21:50:25.082Z,23.80
2018-06-19T21:52:53.644Z,23.70
2018-06-19T21:55:22.303Z,23.70
2018-06-19T21:57:51.210Z,23.70
2018-06-19T22:00:19.719Z,23.70
2018-06-19T22:02:48.246Z,23.70
2018-06-19T22:05:16.766Z,23.60
2018-06-19T22:07:45.286Z,23.60
2018-06-19T22:10:13.799Z,23.60
2018-06-19T22:12:42.309Z,23.60
2018-06-19T22:15:10.816Z,23.50
2018-06-19T22:17:39.360Z,23.50
2018-06-19T22:20:07.950Z,23.40
2018-06-19T22:22:36.474Z,23.40
2018-06-19T22:25:05.005Z,23.40
2018-06-19T22:27:33.531Z,23.40
2018-06-19T22:30:02.036Z,23.40
2018-06-19T22:32:30.552Z,23.30
2018-06-19T22:34:59.071Z,23.30
2018-06-19T22:37:27.601Z,23.30
2018-06-19T22:39:56.098Z,23.20
2018-06-19T22:42:24.610Z,23.20
2018-06-19T22:44:53.103Z,23.20
2018-06-19T22:47:21.624Z,23.20
2018-06-19T22:49:50.112Z,23.10
2018-06-19T22:52:18.633Z,23.10
2018-06-19T22:54:47.171Z,23.10
2018-06-19T22:57:15.706Z,23.10
2018-06-19T22:59:44.226Z,23.00
2018-06-19T23:02:12.762Z,23.00
2018-06-19T23:04:41.279Z,23.00
2018-06-19T23:07:09.912Z,23.00
2018-06-19T23:09:38.435Z,22.90
2018-06-19T23:12:06.984Z,22.90
2018-06-19T23:14:35.494Z,22.90
2018-06-19T23:17:04.011Z,22.90
2018-06-19T23:19:32.583Z,22.80
2018-06-19T23:22:01.119Z,22.80
2018-06-19T23:24:29.653Z,22.80
2018-06-19T23:26:58.193Z,22.80
2018-06-19T23:29:26.864Z,22.70
2018-06-19T23:31:55.533Z,22.70
2018-06-19T23:34:24.220Z,22.70
2018-06-19T23:36:52.771Z,22.70
2018-06-19T23:39:21.322Z,22.70
2018-06-19T23:41:49.912Z,22.60
2018-06-19T23:44:18.452Z,22.60
2018-06-19T23:46:46.983Z,22.60
2018-06-19T23:49:15.528Z,22.60
2018-06-19T23:51:44.069Z,22.50
2018-06-19T23:54:12.613Z,22.50
2018-06-19T23:56:41.195Z,22.50
2018-06-19T23:59:09.711Z,22.50
